Time;durP1;ratioP1;P1;durP2;ratioP2;P2;SDS_P1;SDS_P2;PMS_P1;PMS_P2;Temp;Humidity;BMP_temperature;BMP_pressure;BME280_temperature;BME280_humidity;BME280_pressure;Samples;Min_cycle;Max_cycle;Signal;HPM_P1;HPM_P2
2020/12/25 00:01:30;;;;;;;0.10;0.10;;;4.30;96.60;;;;;;5058201;28;20024;-74
2020/12/25 00:03:57;;;;;;;0.10;0.10;;;4.20;96.60;;;;;;5057944;28;20036;-80
2020/12/25 00:06:25;;;;;;;0.30;0.10;;;4.10;96.50;;;;;;5041606;28;20025;-80
2020/12/25 00:08:51;;;;;;;0.20;0.10;;;4.10;96.50;;;;;;5057954;28;20140;-81
2020/12/25 00:11:16;;;;;;;0.10;0.10;;;4.20;96.50;;;;;;5041645;28;20037;-79
2020/12/25 00:13:45;;;;;;;0.20;0.10;;;4.10;96.40;;;;;;5024987;28;20063;-78
2020/12/25 00:16:11;;;;;;;0.10;0.10;;;4.10;96.40;;;;;;5059449;28;20083;-79
2020/12/25 00:18:36;;;;;;;0.30;0.10;;;4.10;96.30;;;;;;5059404;28;20029;-79
2020/12/25 00:21:02;;;;;;;0.20;0.10;;;4.00;96.20;;;;;;5059378;28;20538;-79
2020/12/25 00:23:27;;;;;;;0.17;0.10;;;4.00;96.20;;;;;;5057178;28;20119;-79
2020/12/25 00:25:53;;;;;;;0.87;0.10;;;4.00;96.20;;;;;;5056214;28;20108;-81
2020/12/25 00:28:18;;;;;;;0.20;0.10;;;4.00;96.20;;;;;;5056094;28;20025;-78
2020/12/25 00:30:44;;;;;;;0.17;0.10;;;3.90;96.20;;;;;;5038210;28;20029;-78
2020/12/25 00:33:11;;;;;;;0.37;0.20;;;3.90;96.10;;;;;;5054763;28;20370;-78
2020/12/25 00:35:37;;;;;;;0.10;0.10;;;3.90;96.10;;;;;;5055934;28;20021;-79
2020/12/25 00:38:03;;;;;;;0.33;0.10;;;3.90;96.10;;;;;;5056358;28;20029;-79
2020/12/25 00:40:28;;;;;;;0.20;0.10;;;3.80;96.10;;;;;;5054638;28;20036;-78
2020/12/25 00:42:54;;;;;;;0.50;0.10;;;3.80;96.10;;;;;;5054622;28;20505;-79
2020/12/25 00:45:20;;;;;;;0.40;0.10;;;3.80;96.10;;;;;;5054486;28;20029;-78
2020/12/25 00:47:45;;;;;;;0.10;0.10;;;3.70;96.00;;;;;;5055664;28;20036;-78
2020/12/25 00:50:11;;;;;;;0.10;0.10;;;3.70;96.00;;;;;;5055928;28;20057;-78
2020/12/25 00:52:37;;;;;;;0.10;0.10;;;3.70;96.00;;;;;;5055745;28;20029;-79
2020/12/25 00:55:03;;;;;;;0.20;0.10;;;3.70;96.00;;;;;;5054615;28;20492;-78
2020/12/25 00:57:29;;;;;;;0.10;0.10;;;3.70;96.00;;;;;;5055578;28;20041;-78
2020/12/25 00:59:54;;;;;;;0.10;0.10;;;3.60;95.90;;;;;;5055582;28;20044;-80
2020/12/25 01:02:20;;;;;;;0.67;0.10;;;3.60;96.00;;;;;;5055361;28;20029;-78
2020/12/25 01:04:46;;;;;;;0.50;0.10;;;3.60;96.00;;;;;;5055489;28;20431;-78
2020/12/25 01:07:11;;;;;;;0.20;0.10;;;3.60;96.10;;;;;;5037527;28;20131;-80
2020/12/25 01:09:37;;;;;;;0.10;0.10;;;3.60;96.10;;;;;;5054072;28;20029;-79
2020/12/25 01:12:03;;;;;;;0.30;0.30;;;3.60;96.10;;;;;;5055483;28;20059;-78
2020/12/25 01:14:30;;;;;;;0.10;0.10;;;3.50;96.10;;;;;;5055236;28;20117;-78
2020/12/25 01:16:56;;;;;;;0.30;0.10;;;3.50;96.10;;;;;;5053908;28;20032;-79
2020/12/25 01:19:23;;;;;;;0.53;0.10;;;3.50;96.20;;;;;;5055023;28;20028;-78
2020/12/25 01:21:49;;;;;;;0.10;0.10;;;3.50;96.20;;;;;;5053805;28;20090;-78
2020/12/25 01:24:14;;;;;;;0.10;0.10;;;3.50;96.20;;;;;;5053825;28;20475;-78
2020/12/25 01:26:40;;;;;;;0.27;0.10;;;3.50;96.20;;;;;;5037193;28;20055;-79
2020/12/25 01:29:06;;;;;;;0.10;0.10;;;3.50;96.20;;;;;;5053690;28;20025;-78
2020/12/25 01:31:31;;;;;;;0.77;0.20;;;3.50;96.20;;;;;;5053674;28;20120;-78
2020/12/25 01:33:57;;;;;;;1.37;0.20;;;3.40;96.20;;;;;;5053718;28;20064;-78
2020/12/25 01:36:23;;;;;;;0.10;0.10;;;3.40;96.20;;;;;;5036488;28;20429;-78
2020/12/25 01:38:48;;;;;;;0.20;0.10;;;3.40;96.20;;;;;;5036956;28;20029;-78
2020/12/25 01:41:14;;;;;;;1.50;0.10;;;3.40;96.10;;;;;;5036866;28;20082;-78
2020/12/25 01:43:39;;;;;;;0.10;0.10;;;3.40;96.10;;;;;;5020191;28;20066;-78
2020/12/25 01:46:06;;;;;;;0.10;0.10;;;3.30;96.00;;;;;;5036714;28;20025;-79
2020/12/25 01:48:32;;;;;;;0.10;0.10;;;3.30;96.00;;;;;;5053401;28;20086;-78
2020/12/25 01:50:59;;;;;;;0.10;0.10;;;3.30;96.00;;;;;;5053276;28;20060;-78
2020/12/25 01:53:27;;;;;;;0.20;0.10;;;3.20;96.00;;;;;;5053173;28;20033;-78
2020/12/25 01:55:53;;;;;;;0.10;0.10;;;3.20;96.00;;;;;;5053104;28;20048;-78
2020/12/25 01:58:21;;;;;;;0.30;0.10;;;3.20;96.20;;;;;;5053204;28;20212;-78
2020/12/25 02:00:48;;;;;;;0.13;0.13;;;3.20;96.20;;;;;;5053005;28;20029;-79
2020/12/25 02:03:18;;;;;;;0.27;0.10;;;3.30;96.40;;;;;;5053060;28;20119;-79
2020/12/25 02:05:45;;;;;;;0.10;0.10;;;3.20;96.40;;;;;;5053066;28;20037;-78
2020/12/25 02:08:11;;;;;;;0.10;0.10;;;3.20;96.50;;;;;;5052751;28;20056;-78
2020/12/25 02:10:37;;;;;;;0.10;0.10;;;3.30;96.50;;;;;;5053044;28;20029;-79
2020/12/25 02:13:05;;;;;;;0.10;0.10;;;3.30;96.60;;;;;;5052999;28;20061;-78
2020/12/25 02:15:31;;;;;;;0.30;0.10;;;3.30;96.60;;;;;;5053198;28;20041;-78
2020/12/25 02:17:57;;;;;;;0.30;0.10;;;3.30;96.60;;;;;;5036405;28;20377;-77
2020/12/25 02:20:23;;;;;;;0.10;0.10;;;3.20;96.60;;;;;;5052833;28;20036;-79
2020/12/25 02:22:48;;;;;;;0.37;0.10;;;3.30;96.60;;;;;;5053045;28;20033;-78
2020/12/25 02:25:15;;;;;;;0.10;0.10;;;3.30;96.70;;;;;;5054047;28;20033;-79
2020/12/25 02:27:40;;;;;;;0.10;0.10;;;3.20;96.70;;;;;;5052876;28;20031;-79
2020/12/25 02:30:07;;;;;;;0.13;0.10;;;3.30;96.70;;;;;;5053899;28;20389;-78
2020/12/25 02:32:34;;;;;;;0.10;0.10;;;3.30;96.80;;;;;;5052548;28;20021;-78
2020/12/25 02:34:59;;;;;;;0.10;0.10;;;3.30;96.90;;;;;;5054003;28;20032;-79
2020/12/25 02:37:25;;;;;;;0.10;0.10;;;3.30;96.90;;;;;;5053717;28;20040;-78
2020/12/25 02:39:52;;;;;;;0.10;0.10;;;3.40;97.00;;;;;;5052391;28;20039;-78
2020/12/25 02:42:17;;;;;;;0.10;0.10;;;3.40;97.10;;;;;;5052374;28;20037;-79
2020/12/25 02:44:43;;;;;;;0.10;0.10;;;3.40;97.10;;;;;;5035681;28;20036;-78
2020/12/25 02:47:10;;;;;;;0.10;0.10;;;3.40;97.10;;;;;;5034878;28;20070;-80
2020/12/25 02:49:37;;;;;;;0.10;0.10;;;3.50;97.20;;;;;;5035800;28;20033;-80
2020/12/25 02:52:02;;;;;;;0.10;0.10;;;3.50;97.30;;;;;;5035783;28;20025;-79
2020/12/25 02:54:28;;;;;;;0.30;0.10;;;3.50;97.30;;;;;;5035847;28;20041;-78
2020/12/25 02:56:54;;;;;;;0.10;0.10;;;3.60;97.40;;;;;;5061698;28;20025;-78
2020/12/25 02:59:19;;;;;;;0.10;0.10;;;3.60;97.40;;;;;;5072908;28;20102;-78
2020/12/25 03:01:54;;;;;;;0.30;0.13;;;3.60;97.40;;;;;;5055397;28;20476;-78
2020/12/25 03:04:20;;;;;;;0.10;0.10;;;3.60;97.40;;;;;;5055494;28;20025;-78
2020/12/25 03:06:46;;;;;;;0.10;0.10;;;3.60;97.40;;;;;;5073408;28;20431;-78
2020/12/25 03:09:13;;;;;;;0.10;0.10;;;3.60;97.40;;;;;;5073115;28;20075;-78
2020/12/25 03:11:38;;;;;;;0.20;0.10;;;3.60;97.30;;;;;;5055346;28;20052;-78
2020/12/25 03:14:04;;;;;;;0.10;0.10;;;3.60;97.20;;;;;;5055311;28;20472;-78
2020/12/25 03:16:30;;;;;;;0.10;0.10;;;3.60;97.10;;;;;;5055885;28;20086;-78
2020/12/25 03:18:56;;;;;;;0.33;0.10;;;3.50;97.00;;;;;;5071954;28;20037;-78
2020/12/25 03:21:22;;;;;;;0.40;0.10;;;3.40;96.80;;;;;;5073294;28;20036;-76
2020/12/25 03:23:48;;;;;;;0.10;0.10;;;3.40;96.80;;;;;;5073123;28;20480;-77
2020/12/25 03:26:15;;;;;;;0.33;0.10;;;3.40;96.70;;;;;;5071942;28;20032;-78
2020/12/25 03:28:41;;;;;;;0.10;0.10;;;3.40;96.70;;;;;;5071949;28;20029;-78
2020/12/25 03:31:06;;;;;;;0.10;0.10;;;3.30;96.70;;;;;;5071876;28;20383;-77
2020/12/25 03:33:32;;;;;;;0.10;0.10;;;3.30;96.70;;;;;;5073219;28;20033;-77
2020/12/25 03:35:58;;;;;;;0.10;0.10;;;3.30;96.80;;;;;;5055178;28;20021;-78
2020/12/25 03:38:24;;;;;;;0.10;0.10;;;3.30;96.80;;;;;;5073043;28;20035;-78
2020/12/25 03:40:50;;;;;;;0.10;0.10;;;3.30;96.80;;;;;;5055245;28;20434;-78
2020/12/25 03:43:15;;;;;;;0.10;0.10;;;3.30;96.80;;;;;;5072941;28;20028;-78
2020/12/25 03:45:41;;;;;;;0.10;0.10;;;3.40;96.90;;;;;;5072944;28;20043;-78
2020/12/25 03:48:06;;;;;;;0.27;0.10;;;3.40;97.00;;;;;;5072073;28;20032;-78
2020/12/25 03:50:32;;;;;;;0.10;0.10;;;3.40;97.00;;;;;;5055013;28;20123;-78
2020/12/25 03:52:58;;;;;;;0.10;0.10;;;3.50;97.00;;;;;;5072886;28;20033;-78
2020/12/25 03:55:23;;;;;;;0.30;0.10;;;3.40;97.00;;;;;;5072889;28;20036;-78
2020/12/25 03:57:49;;;;;;;0.10;0.10;;;3.40;97.10;;;;;;5038420;28;20060;-78
2020/12/25 04:00:15;;;;;;;0.30;0.10;;;3.50;97.20;;;;;;5075172;28;20032;-74
2020/12/25 04:02:40;;;;;;;0.10;0.10;;;3.50;97.20;;;;;;5058771;28;20024;-73
2020/12/25 04:05:06;;;;;;;0.10;0.10;;;3.50;97.20;;;;;;5075260;28;20039;-73
2020/12/25 04:07:32;;;;;;;0.10;0.10;;;3.50;97.20;;;;;;5075171;28;20041;-74
2020/12/25 04:09:57;;;;;;;0.10;0.10;;;3.50;97.20;;;;;;5076519;28;20365;-74
2020/12/25 04:12:23;;;;;;;0.10;0.10;;;3.50;97.20;;;;;;5058461;28;20162;-74
2020/12/25 04:14:49;;;;;;;0.27;0.10;;;3.50;97.10;;;;;;5058574;28;20048;-73
2020/12/25 04:17:14;;;;;;;0.10;0.10;;;3.40;97.10;;;;;;5075156;28;20063;-74
2020/12/25 04:19:40;;;;;;;0.10;0.10;;;3.40;97.00;;;;;;5058511;28;20032;-74
2020/12/25 04:22:05;;;;;;;0.10;0.10;;;3.40;97.30;;;;;;5058646;28;20029;-74
2020/12/25 04:24:31;;;;;;;0.67;0.10;;;3.40;96.90;;;;;;5076155;28;20358;-74
2020/12/25 04:26:57;;;;;;;0.10;0.10;;;3.40;96.90;;;;;;5075002;28;20021;-74
2020/12/25 04:29:22;;;;;;;0.10;0.10;;;3.30;96.90;;;;;;5058239;28;20020;-74
2020/12/25 04:31:48;;;;;;;0.97;0.30;;;3.30;96.80;;;;;;5076102;28;20074;-74
2020/12/25 04:34:14;;;;;;;0.10;0.10;;;3.30;96.80;;;;;;5058499;28;20039;-74
2020/12/25 04:36:39;;;;;;;0.20;0.10;;;3.30;96.80;;;;;;5076067;28;20020;-74
2020/12/25 04:39:06;;;;;;;0.10;0.10;;;3.20;96.70;;;;;;5076011;28;20029;-74
2020/12/25 04:41:33;;;;;;;0.10;0.10;;;3.30;96.70;;;;;;5074648;28;20031;-74
2020/12/25 04:44:00;;;;;;;0.10;0.10;;;3.20;96.60;;;;;;5075737;28;20036;-74
2020/12/25 04:46:26;;;;;;;0.10;0.10;;;3.30;96.60;;;;;;5041456;28;20020;-74
2020/12/25 04:48:52;;;;;;;0.10;0.10;;;3.10;96.50;;;;;;5074447;28;20024;-74
2020/12/25 04:51:18;;;;;;;0.10;0.10;;;3.20;96.60;;;;;;5074544;28;20035;-74
2020/12/25 04:53:50;;;;;;;0.20;0.10;;;3.10;96.60;;;;;;5075676;28;20103;-74
2020/12/25 04:56:20;;;;;;;0.10;0.10;;;3.20;96.70;;;;;;5074313;28;20104;-74
2020/12/25 04:58:49;;;;;;;0.10;0.10;;;3.10;96.80;;;;;;5058190;28;20056;-74
2020/12/25 05:01:15;;;;;;;0.20;0.10;;;3.10;96.80;;;;;;5073084;28;20017;-74
2020/12/25 05:03:42;;;;;;;0.10;0.10;;;3.20;96.80;;;;;;5075152;28;20016;-74
2020/12/25 05:06:16;;;;;;;0.10;0.10;;;3.10;96.80;;;;;;5057658;28;20017;-74
2020/12/25 05:08:44;;;;;;;0.10;0.10;;;3.10;96.80;;;;;;5074073;28;20365;-74
2020/12/25 05:11:12;;;;;;;0.10;0.10;;;3.10;96.80;;;;;;5073175;28;20060;-74
2020/12/25 05:13:49;;;;;;;0.10;0.10;;;3.10;96.80;;;;;;5073989;28;20020;-74
2020/12/25 05:16:16;;;;;;;0.10;0.10;;;3.10;96.80;;;;;;5075011;28;20391;-74
2020/12/25 05:18:48;;;;;;;0.10;0.10;;;3.10;96.80;;;;;;5074642;28;20033;-74
2020/12/25 05:21:16;;;;;;;0.10;0.10;;;3.10;96.80;;;;;;5074107;28;20421;-74
2020/12/25 05:23:44;;;;;;;0.10;0.10;;;3.10;96.90;;;;;;5075504;28;20383;-74
2020/12/25 05:26:11;;;;;;;0.10;0.10;;;3.10;96.90;;;;;;5075088;28;20063;-73
2020/12/25 05:28:48;;;;;;;0.00;0.00;;;3.10;97.00;;;;;;5073775;28;20085;-74
2020/12/25 05:31:18;;;;;;;0.10;0.10;;;3.20;97.00;;;;;;5073620;28;20082;-74
2020/12/25 05:33:43;;;;;;;0.10;0.10;;;3.20;97.00;;;;;;5073490;28;20052;-74
2020/12/25 05:36:11;;;;;;;0.10;0.10;;;3.20;97.00;;;;;;5074766;28;20506;-74
2020/12/25 05:38:38;;;;;;;0.10;0.10;;;3.20;97.00;;;;;;5074697;28;20017;-74
2020/12/25 05:41:05;;;;;;;1.70;0.50;;;3.20;97.00;;;;;;5073509;28;20035;-74
2020/12/25 05:43:32;;;;;;;0.60;0.10;;;3.20;97.00;;;;;;5057005;28;20028;-74
2020/12/25 05:45:57;;;;;;;0.10;0.10;;;3.20;97.00;;;;;;5073268;28;20029;-74
2020/12/25 05:48:23;;;;;;;0.10;0.10;;;3.20;97.00;;;;;;5074593;28;20059;-74
2020/12/25 05:50:50;;;;;;;0.10;0.10;;;3.20;97.00;;;;;;5073303;28;20484;-73
2020/12/25 05:53:15;;;;;;;0.10;0.10;;;3.30;97.10;;;;;;5057219;28;20036;-73
2020/12/25 05:55:43;;;;;;;0.10;0.10;;;3.30;97.10;;;;;;5060810;28;20036;-74
2020/12/25 05:58:12;;;;;;;0.10;0.10;;;3.30;97.10;;;;;;5057835;28;20044;-74
2020/12/25 06:00:40;;;;;;;0.10;0.10;;;3.30;97.20;;;;;;5072315;28;20465;-74
2020/12/25 06:03:10;;;;;;;0.10;0.10;;;3.30;97.20;;;;;;5070389;28;20033;-75
2020/12/25 06:05:38;;;;;;;0.10;0.10;;;3.30;97.20;;;;;;5072655;28;20028;-75
2020/12/25 06:08:14;;;;;;;0.10;0.10;;;3.30;97.20;;;;;;5071268;28;20130;-74
2020/12/25 06:10:43;;;;;;;0.10;0.10;;;3.30;97.10;;;;;;5073698;28;20025;-74
2020/12/25 06:13:13;;;;;;;0.10;0.10;;;3.30;97.10;;;;;;5072257;28;20033;-74
2020/12/25 06:15:43;;;;;;;0.13;0.10;;;3.30;97.10;;;;;;5073538;28;20025;-74
2020/12/25 06:18:30;;;;;;;0.33;0.10;;;3.30;97.10;;;;;;5074180;28;20036;-74
2020/12/25 06:21:06;;;;;;;0.43;0.10;;;3.30;97.10;;;;;;5072668;28;20071;-74
2020/12/25 06:23:33;;;;;;;0.57;0.10;;;3.30;97.20;;;;;;5072680;28;20032;-74
2020/12/25 06:26:06;;;;;;;0.10;0.10;;;3.30;97.20;;;;;;5073869;28;20036;-74
2020/12/25 06:28:32;;;;;;;0.20;0.10;;;3.40;97.30;;;;;;5073913;28;20494;-74
2020/12/25 06:30:58;;;;;;;0.30;0.10;;;3.40;97.30;;;;;;5073816;28;20032;-74
2020/12/25 06:33:31;;;;;;;0.10;0.10;;;3.40;97.30;;;;;;5072776;28;20111;-74
2020/12/25 06:35:59;;;;;;;0.10;0.10;;;3.50;97.40;;;;;;5073560;28;20549;-74
2020/12/25 06:38:26;;;;;;;0.40;0.10;;;3.50;97.40;;;;;;5072490;28;20465;-74
2020/12/25 06:40:59;;;;;;;0.10;0.10;;;3.40;97.40;;;;;;5072495;28;20469;-74
2020/12/25 06:43:27;;;;;;;0.10;0.10;;;3.40;97.40;;;;;;5073740;28;20449;-74
2020/12/25 06:46:02;;;;;;;0.20;0.10;;;3.40;97.40;;;;;;5072331;28;20024;-75
2020/12/25 06:48:29;;;;;;;0.10;0.10;;;3.50;97.40;;;;;;5073513;28;20464;-74
2020/12/25 06:50:58;;;;;;;0.20;0.20;;;3.40;97.40;;;;;;5055568;28;20028;-74
2020/12/25 06:53:37;;;;;;;0.10;0.10;;;3.40;97.40;;;;;;5072310;28;20024;-75
2020/12/25 06:56:08;;;;;;;0.47;0.10;;;3.40;97.40;;;;;;5072255;28;20043;-74
2020/12/25 06:58:37;;;;;;;0.10;0.10;;;3.40;97.40;;;;;;5072185;28;20032;-74
2020/12/25 07:01:02;;;;;;;0.10;0.10;;;3.40;97.40;;;;;;5072135;28;20115;-74
2020/12/25 07:03:33;;;;;;;0.10;0.10;;;3.40;97.60;;;;;;5038834;28;20127;-75
2020/12/25 07:06:00;;;;;;;0.10;0.10;;;3.40;97.40;;;;;;5072056;28;20028;-74
2020/12/25 07:08:30;;;;;;;0.10;0.10;;;3.40;97.40;;;;;;5071911;28;20400;-75
2020/12/25 07:11:08;;;;;;;0.10;0.10;;;3.40;97.40;;;;;;5072060;28;20029;-74
2020/12/25 07:13:35;;;;;;;0.10;0.10;;;3.50;97.40;;;;;;5071927;28;20456;-74
2020/12/25 07:16:02;;;;;;;0.10;0.10;;;3.50;97.50;;;;;;5072007;28;20064;-74
2020/12/25 07:18:28;;;;;;;0.10;0.10;;;3.50;97.50;;;;;;5073427;28;20036;-75
2020/12/25 07:21:04;;;;;;;0.10;0.10;;;3.50;97.50;;;;;;5073226;28;20025;-74
2020/12/25 07:23:30;;;;;;;0.10;0.10;;;3.50;97.50;;;;;;5055607;28;20029;-74
2020/12/25 07:26:01;;;;;;;0.20;0.10;;;3.50;97.40;;;;;;5071862;28;20028;-75
2020/12/25 07:28:28;;;;;;;0.20;0.10;;;3.50;97.40;;;;;;5071844;28;20115;-74
2020/12/25 07:30:57;;;;;;;0.10;0.10;;;3.50;97.30;;;;;;5071773;28;20028;-75
2020/12/25 07:33:23;;;;;;;0.10;0.10;;;3.40;97.30;;;;;;5055431;28;20407;-74
2020/12/25 07:35:49;;;;;;;0.10;0.10;;;3.40;97.20;;;;;;5076997;28;20032;-75
2020/12/25 07:38:16;;;;;;;0.10;0.10;;;3.40;97.10;;;;;;5077084;28;20068;-74
2020/12/25 07:40:45;;;;;;;1.03;0.10;;;3.40;97.00;;;;;;5075877;28;20059;-74
2020/12/25 07:43:11;;;;;;;0.10;0.10;;;3.30;96.90;;;;;;5075957;28;20388;-74
2020/12/25 07:45:38;;;;;;;0.10;0.10;;;3.30;96.80;;;;;;5077131;28;20035;-75
2020/12/25 07:48:04;;;;;;;0.10;0.10;;;3.20;96.80;;;;;;5075782;28;20025;-74
2020/12/25 07:50:41;;;;;;;0.10;0.10;;;3.20;96.70;;;;;;5075713;28;20457;-74
2020/12/25 07:53:12;;;;;;;0.10;0.10;;;3.20;96.80;;;;;;5059430;28;20024;-74
2020/12/25 07:55:39;;;;;;;0.10;0.10;;;3.20;96.70;;;;;;5075399;28;20032;-74
2020/12/25 07:58:04;;;;;;;0.20;0.10;;;3.20;96.70;;;;;;5075585;28;20032;-75
2020/12/25 08:00:31;;;;;;;0.10;0.10;;;3.20;96.70;;;;;;5076752;28;20391;-75
2020/12/25 08:02:58;;;;;;;0.10;0.10;;;3.20;96.70;;;;;;5076661;28;20086;-75
2020/12/25 08:05:27;;;;;;;0.30;0.10;;;3.20;96.70;;;;;;5058661;28;20033;-75
2020/12/25 08:07:53;;;;;;;0.80;0.10;;;3.20;96.70;;;;;;5075215;28;20048;-75
2020/12/25 08:10:20;;;;;;;0.63;0.10;;;3.20;96.60;;;;;;5042324;28;20041;-76
2020/12/25 08:12:51;;;;;;;0.77;0.10;;;3.30;96.60;;;;;;5076295;28;20032;-76
2020/12/25 08:15:19;;;;;;;0.10;0.10;;;3.20;96.50;;;;;;5076239;28;20082;-75
2020/12/25 08:17:48;;;;;;;0.10;0.10;;;3.20;96.50;;;;;;5058380;28;20047;-75
2020/12/25 08:20:14;;;;;;;0.20;0.10;;;3.20;96.40;;;;;;5074857;28;20029;-76
2020/12/25 08:22:40;;;;;;;0.10;0.10;;;3.20;96.50;;;;;;5076208;28;20128;-75
2020/12/25 08:25:05;;;;;;;0.10;0.10;;;3.20;96.50;;;;;;5057935;28;20456;-75
2020/12/25 08:27:33;;;;;;;0.10;0.10;;;3.20;96.50;;;;;;5068637;28;20029;-76
2020/12/25 08:30:00;;;;;;;0.10;0.10;;;3.20;96.50;;;;;;5054518;28;20033;-74
2020/12/25 08:32:29;;;;;;;0.40;0.10;;;3.30;96.90;;;;;;5060059;28;20041;-75
2020/12/25 08:35:11;;;;;;;1.07;0.10;;;3.40;96.80;;;;;;5060479;28;20029;-75
2020/12/25 08:37:37;;;;;;;0.10;0.10;;;3.40;96.90;;;;;;5064597;28;20152;-75
2020/12/25 08:40:16;;;;;;;0.10;0.10;;;3.50;97.00;;;;;;5054799;28;20059;-75
2020/12/25 08:42:42;;;;;;;0.10;0.10;;;3.60;97.10;;;;;;5065411;28;20119;-75
2020/12/25 08:45:09;;;;;;;0.13;0.10;;;3.60;97.10;;;;;;5048840;28;20561;-75
2020/12/25 08:47:34;;;;;;;0.10;0.10;;;3.60;97.20;;;;;;5066654;28;20041;-75
2020/12/25 08:50:01;;;;;;;0.10;0.10;;;3.70;97.30;;;;;;5050163;28;20369;-75
2020/12/25 08:52:26;;;;;;;0.73;0.10;;;3.70;97.30;;;;;;5061466;28;20468;-75
2020/12/25 08:54:59;;;;;;;0.50;0.10;;;3.80;97.40;;;;;;5062709;28;20043;-76
2020/12/25 08:57:26;;;;;;;0.10;0.10;;;3.90;97.50;;;;;;5057571;28;20039;-76
2020/12/25 09:00:03;;;;;;;0.10;0.10;;;3.90;97.60;;;;;;5061673;28;20353;-75
2020/12/25 09:02:29;;;;;;;0.10;0.10;;;4.00;97.60;;;;;;5057593;28;20038;-75
2020/12/25 09:04:55;;;;;;;0.10;0.10;;;4.00;97.70;;;;;;5045825;28;20123;-75
2020/12/25 09:07:20;;;;;;;0.10;0.10;;;4.10;97.80;;;;;;5049027;28;20029;-76
2020/12/25 09:09:46;;;;;;;0.10;0.10;;;4.10;97.90;;;;;;5047704;28;20083;-75
2020/12/25 09:12:11;;;;;;;0.10;0.10;;;4.20;97.90;;;;;;5065623;28;20024;-75
2020/12/25 09:14:37;;;;;;;0.37;0.10;;;4.30;98.00;;;;;;5063363;28;20041;-75
2020/12/25 09:17:03;;;;;;;0.10;0.10;;;4.30;97.90;;;;;;5051550;28;20123;-76
2020/12/25 09:19:28;;;;;;;0.10;0.10;;;4.30;97.90;;;;;;5060066;28;20052;-76
2020/12/25 09:21:54;;;;;;;0.10;0.10;;;4.40;98.00;;;;;;5058992;28;20025;-76
2020/12/25 09:24:20;;;;;;;0.10;0.10;;;4.40;98.00;;;;;;5046911;28;20040;-75
2020/12/25 09:26:47;;;;;;;0.00;0.00;;;4.40;98.00;;;;;;5050657;28;20369;-75
2020/12/25 09:29:13;;;;;;;0.10;0.10;;;4.50;98.10;;;;;;5065002;28;20036;-75
2020/12/25 09:31:38;;;;;;;0.17;0.10;;;4.60;98.10;;;;;;5047600;28;20037;-76
2020/12/25 09:34:04;;;;;;;0.10;0.10;;;4.70;98.20;;;;;;5063680;28;20068;-76
2020/12/25 09:36:29;;;;;;;0.10;0.10;;;4.90;98.40;;;;;;5056622;28;20056;-75
2020/12/25 09:38:55;;;;;;;0.10;0.10;;;5.20;98.60;;;;;;5069742;28;20060;-75
2020/12/25 09:41:21;;;;;;;0.10;0.10;;;5.30;98.80;;;;;;5058790;28;20547;-74
2020/12/25 09:43:46;;;;;;;0.20;0.10;;;5.60;99.20;;;;;;5063162;28;20467;-73
2020/12/25 09:46:12;;;;;;;0.23;0.10;;;6.00;99.90;;;;;;5065320;28;20419;-73
2020/12/25 09:48:38;;;;;;;1.90;0.23;;;6.60;99.90;;;;;;5068478;28;20025;-74
2020/12/25 09:51:04;;;;;;;3.37;0.30;;;7.20;99.90;;;;;;5062108;28;20036;-74
2020/12/25 09:53:29;;;;;;;3.97;0.60;;;7.70;99.90;;;;;;5055014;28;20029;-74
2020/12/25 09:55:55;;;;;;;7.57;0.90;;;8.20;99.90;;;;;;5060873;28;20086;-74
2020/12/25 09:58:20;;;;;;;13.20;1.50;;;8.50;99.90;;;;;;5035573;28;20033;-73
2020/12/25 10:00:46;;;;;;;9.30;0.83;;;8.60;98.80;;;;;;5062808;28;20408;-73
2020/12/25 10:03:12;;;;;;;10.07;0.80;;;8.90;99.10;;;;;;5050293;28;20068;-74
2020/12/25 10:05:37;;;;;;;4.70;0.73;;;9.40;99.60;;;;;;5056602;28;20064;-76
2020/12/25 10:08:03;;;;;;;6.75;0.85;;;9.80;99.10;;;;;;5066341;28;20489;-74
2020/12/25 10:10:29;;;;;;;5.82;0.43;;;10.40;99.80;;;;;;5040867;28;20036;-74
2020/12/25 10:12:54;;;;;;;6.35;0.70;;;10.90;99.90;;;;;;5063953;28;20090;-75
2020/12/25 10:15:22;;;;;;;5.80;1.02;;;11.50;99.90;;;;;;5046753;28;20032;-74
2020/12/25 10:17:47;;;;;;;8.63;0.80;;;11.90;99.00;;;;;;5054514;28;20536;-74
2020/12/25 10:20:13;;;;;;;5.30;0.60;;;12.00;97.20;;;;;;5064440;28;20115;-74
2020/12/25 10:22:39;;;;;;;4.15;0.60;;;11.80;96.50;;;;;;5057307;28;20077;-75
2020/12/25 10:25:05;;;;;;;6.35;0.55;;;11.50;95.20;;;;;;5055690;28;20033;-74
2020/12/25 10:27:31;;;;;;;4.57;0.50;;;10.90;93.90;;;;;;5056618;28;20033;-74
2020/12/25 10:29:57;;;;;;;6.18;1.02;;;10.50;93.50;;;;;;5053870;28;20016;-74
2020/12/25 10:32:23;;;;;;;5.05;0.60;;;10.10;93.80;;;;;;5052596;28;20029;-73
2020/12/25 10:34:48;;;;;;;5.28;0.68;;;9.80;94.10;;;;;;5053423;28;20114;-74
2020/12/25 10:37:14;;;;;;;9.17;1.00;;;9.50;93.10;;;;;;5052535;28;20033;-74
2020/12/25 10:39:39;;;;;;;7.77;0.70;;;9.20;91.80;;;;;;5052704;28;20028;-74
2020/12/25 10:42:14;;;;;;;3.57;0.47;;;9.00;92.10;;;;;;5035771;28;20477;-74
2020/12/25 10:44:39;;;;;;;;;;;8.90;92.70;;;;;;5052837;28;20094;-75
2020/12/25 10:47:05;;;;;;;7.27;0.43;;;8.80;92.20;;;;;;5052346;28;19904;-74
2020/12/25 10:49:31;;;;;;;4.87;0.63;;;8.70;92.20;;;;;;5052481;28;20421;-74
2020/12/25 10:51:56;;;;;;;4.87;0.77;;;8.60;91.30;;;;;;5052597;28;20104;-74
2020/12/25 10:54:22;;;;;;;3.30;0.37;;;8.90;93.70;;;;;;5053526;28;20110;-75
2020/12/25 10:56:47;;;;;;;2.93;0.30;;;9.30;93.60;;;;;;5053731;28;20052;-75
2020/12/25 10:59:13;;;;;;;3.15;0.20;;;9.70;93.70;;;;;;5052179;28;20063;-74
2020/12/25 11:01:39;;;;;;;2.00;0.68;;;10.30;93.20;;;;;;5018941;28;20495;-74
2020/12/25 11:04:05;;;;;;;1.02;0.30;;;10.80;92.80;;;;;;5035360;28;20036;-75
2020/12/25 11:06:34;;;;;;;2.15;0.20;;;11.20;92.70;;;;;;5035297;28;20396;-75
2020/12/25 11:09:01;;;;;;;1.20;0.20;;;11.70;92.20;;;;;;5034185;28;20098;-75
2020/12/25 11:11:28;;;;;;;1.83;0.30;;;12.20;91.40;;;;;;5052140;28;20028;-75
2020/12/25 11:13:54;;;;;;;2.90;0.30;;;12.60;86.80;;;;;;5053239;28;20022;-74
2020/12/25 11:16:25;;;;;;;2.90;0.30;;;12.70;82.70;;;;;;5052142;28;20037;-73
2020/12/25 11:18:51;;;;;;;1.92;0.30;;;12.80;79.90;;;;;;5053182;28;20552;-74
2020/12/25 11:21:43;;;;;;;3.80;0.40;;;12.70;78.00;;;;;;5052012;28;20114;-73
2020/12/25 11:24:08;;;;;;;3.35;0.30;;;12.80;76.00;;;;;;5050903;28;20048;-74
2020/12/25 11:26:35;;;;;;;3.95;0.40;;;12.90;76.70;;;;;;5053237;28;20025;-74
2020/12/25 11:29:06;;;;;;;1.13;0.20;;;12.90;73.90;;;;;;5051566;28;20385;-74
2020/12/25 11:31:33;;;;;;;3.35;0.47;;;12.90;73.90;;;;;;5053092;28;20107;-74
2020/12/25 11:33:59;;;;;;;1.88;0.40;;;12.80;70.00;;;;;;5051558;28;20024;-73
2020/12/25 11:36:26;;;;;;;5.03;0.57;;;12.70;69.70;;;;;;5053007;28;20025;-73
2020/12/25 11:38:52;;;;;;;1.85;0.40;;;12.60;68.60;;;;;;5053106;28;20036;-74
2020/12/25 11:41:20;;;;;;;4.97;0.70;;;12.50;68.80;;;;;;5052964;28;20025;-74
2020/12/25 11:43:47;;;;;;;3.90;0.40;;;12.50;66.70;;;;;;5051917;28;20091;-75
2020/12/25 11:46:13;;;;;;;2.55;0.38;;;12.50;66.00;;;;;;5035115;28;20029;-74
2020/12/25 11:48:38;;;;;;;6.00;0.50;;;12.50;65.80;;;;;;5052581;28;20045;-74
2020/12/25 11:51:05;;;;;;;2.05;0.40;;;12.50;66.40;;;;;;5051265;28;20463;-74
2020/12/25 11:53:31;;;;;;;4.57;0.60;;;12.40;65.70;;;;;;5051571;28;20387;-78
2020/12/25 11:55:57;;;;;;;4.45;0.73;;;12.40;66.80;;;;;;5034627;28;20040;-78
2020/12/25 11:58:23;;;;;;;5.88;0.63;;;12.40;67.30;;;;;;5051602;28;20036;-77
2020/12/25 12:00:48;;;;;;;3.42;0.50;;;12.60;66.10;;;;;;5052725;28;20488;-78
2020/12/25 12:03:14;;;;;;;6.53;0.60;;;12.80;67.00;;;;;;5051419;28;20053;-78
2020/12/25 12:05:40;;;;;;;3.10;0.45;;;13.10;65.90;;;;;;5052965;28;20389;-78
2020/12/25 12:08:06;;;;;;;5.50;0.60;;;13.40;65.40;;;;;;5052447;28;20053;-79
2020/12/25 12:10:32;;;;;;;6.05;0.70;;;13.80;63.90;;;;;;5051722;28;20029;-78
2020/12/25 12:12:57;;;;;;;4.80;0.70;;;14.00;64.80;;;;;;5051599;28;20474;-79
2020/12/25 12:15:23;;;;;;;4.60;0.77;;;14.20;62.80;;;;;;5051505;28;20033;-78
2020/12/25 12:17:49;;;;;;;2.00;0.50;;;14.20;59.80;;;;;;5052625;28;20051;-78
2020/12/25 12:20:14;;;;;;;3.72;0.55;;;14.30;59.10;;;;;;5052943;28;20037;-78
2020/12/25 12:22:40;;;;;;;6.72;0.75;;;14.20;59.20;;;;;;5055121;28;20033;-78
2020/12/25 12:25:06;;;;;;;4.10;0.68;;;14.20;61.00;;;;;;5054597;28;20064;-78
2020/12/25 12:27:32;;;;;;;3.17;0.50;;;14.50;61.90;;;;;;5056138;28;20369;-78
2020/12/25 12:29:58;;;;;;;2.15;0.43;;;14.90;62.20;;;;;;5056079;28;20078;-78
2020/12/25 12:32:23;;;;;;;3.40;0.43;;;15.40;60.30;;;;;;5055985;28;20032;-78
2020/12/25 12:34:49;;;;;;;2.10;0.40;;;15.70;61.10;;;;;;5056050;28;20037;-78
2020/12/25 12:37:15;;;;;;;3.70;0.45;;;16.10;61.40;;;;;;5059163;28;20115;-79
2020/12/25 12:39:40;;;;;;;4.80;0.60;;;16.60;59.80;;;;;;5076354;28;20092;-78
2020/12/25 12:42:06;;;;;;;4.68;0.50;;;17.00;59.10;;;;;;5071204;28;20025;-78
2020/12/25 12:44:31;;;;;;;3.80;0.45;;;17.30;58.40;;;;;;5055530;28;20040;-78
2020/12/25 12:46:57;;;;;;;3.90;0.43;;;17.70;58.40;;;;;;5063871;28;20035;-78
2020/12/25 12:49:23;;;;;;;2.45;0.50;;;18.00;56.70;;;;;;5063793;28;20033;-78
2020/12/25 12:51:48;;;;;;;5.03;1.00;;;18.10;55.50;;;;;;5062309;28;20033;-78
2020/12/25 12:54:14;;;;;;;3.60;0.40;;;18.30;54.50;;;;;;5072340;28;20033;-78